sensor_id;sensor_type;location;lat;lon;timestamp;P1;durP1;ratioP1;P2;durP2;ratioP2
76053;SDS011;64752;48.870;9.082;2023-07-02T00:01:04;6.25;;;5.10;;
76053;SDS011;64752;48.870;9.082;2023-07-02T00:03:29;6.22;;;4.68;;
76053;SDS011;64752;48.870;9.082;2023-07-02T00:05:56;8.57;;;4.90;;
76053;SDS011;64752;48.870;9.082;2023-07-02T00:08:22;7.43;;;5.13;;
76053;SDS011;64752;48.870;9.082;2023-07-02T00:10:48;6.90;;;4.82;;
76053;SDS011;64752;48.870;9.082;2023-07-02T00:13:14;7.13;;;4.90;;
76053;SDS011;64752;48.870;9.082;2023-07-02T00:15:40;6.43;;;4.30;;
76053;SDS011;64752;48.870;9.082;2023-07-02T00:18:05;6.67;;;4.53;;
76053;SDS011;64752;48.870;9.082;2023-07-02T00:20:31;5.53;;;4.57;;
76053;SDS011;64752;48.870;9.082;2023-07-02T00:22:59;9.48;;;4.93;;
76053;SDS011;64752;48.870;9.082;2023-07-02T00:25:25;6.15;;;4.38;;
76053;SDS011;64752;48.870;9.082;2023-07-02T00:27:51;6.40;;;4.28;;
76053;SDS011;64752;48.870;9.082;2023-07-02T00:30:16;5.93;;;4.40;;
76053;SDS011;64752;48.870;9.082;2023-07-02T00:32:42;7.22;;;4.28;;
76053;SDS011;64752;48.870;9.082;2023-07-02T00:35:07;7.80;;;4.47;;
76053;SDS011;64752;48.870;9.082;2023-07-02T00:37:33;8.85;;;4.25;;
76053;SDS011;64752;48.870;9.082;2023-07-02T00:39:58;9.40;;;4.57;;
76053;SDS011;64752;48.870;9.082;2023-07-02T00:42:24;8.93;;;5.00;;
76053;SDS011;64752;48.870;9.082;2023-07-02T00:44:51;5.88;;;4.40;;
76053;SDS011;64752;48.870;9.082;2023-07-02T00:47:17;8.90;;;4.78;;
76053;SDS011;64752;48.870;9.082;2023-07-02T00:49:42;4.97;;;4.10;;
76053;SDS011;64752;48.870;9.082;2023-07-02T00:52:08;5.80;;;4.50;;
76053;SDS011;64752;48.870;9.082;2023-07-02T00:54:34;7.18;;;4.82;;
76053;SDS011;64752;48.870;9.082;2023-07-02T00:57:02;6.10;;;4.75;;
76053;SDS011;64752;48.870;9.082;2023-07-02T00:59:29;12.20;;;5.17;;
76053;SDS011;64752;48.870;9.082;2023-07-02T01:01:55;8.38;;;4.55;;
76053;SDS011;64752;48.870;9.082;2023-07-02T01:04:21;8.30;;;4.47;;
76053;SDS011;64752;48.870;9.082;2023-07-02T01:06:52;7.88;;;4.80;;
76053;SDS011;64752;48.870;9.082;2023-07-02T01:09:22;9.50;;;4.88;;
76053;SDS011;64752;48.870;9.082;2023-07-02T01:11:57;5.13;;;4.63;;
76053;SDS011;64752;48.870;9.082;2023-07-02T01:14:26;5.82;;;4.70;;
76053;SDS011;64752;48.870;9.082;2023-07-02T01:16:55;6.57;;;5.40;;
76053;SDS011;64752;48.870;9.082;2023-07-02T01:22:18;9.00;;;5.47;;
76053;SDS011;64752;48.870;9.082;2023-07-02T01:24:44;7.70;;;5.20;;
76053;SDS011;64752;48.870;9.082;2023-07-02T01:27:12;11.80;;;5.55;;
76053;SDS011;64752;48.870;9.082;2023-07-02T01:29:38;6.53;;;5.47;;
76053;SDS011;64752;48.870;9.082;2023-07-02T01:32:04;9.32;;;5.85;;
76053;SDS011;64752;48.870;9.082;2023-07-02T01:34:30;7.63;;;5.30;;
76053;SDS011;64752;48.870;9.082;2023-07-02T01:37:02;7.07;;;4.80;;
76053;SDS011;64752;48.870;9.082;2023-07-02T01:39:28;9.85;;;4.53;;
76053;SDS011;64752;48.870;9.082;2023-07-02T01:42:07;7.95;;;5.43;;
76053;SDS011;64752;48.870;9.082;2023-07-02T01:44:33;8.90;;;4.60;;
76053;SDS011;64752;48.870;9.082;2023-07-02T01:47:01;7.68;;;4.50;;
76053;SDS011;64752;48.870;9.082;2023-07-02T01:49:30;7.60;;;4.38;;
76053;SDS011;64752;48.870;9.082;2023-07-02T01:51:57;6.88;;;4.07;;
76053;SDS011;64752;48.870;9.082;2023-07-02T01:54:23;6.55;;;4.05;;
76053;SDS011;64752;48.870;9.082;2023-07-02T01:56:52;6.90;;;4.20;;
76053;SDS011;64752;48.870;9.082;2023-07-02T01:59:18;6.80;;;4.13;;
76053;SDS011;64752;48.870;9.082;2023-07-02T02:01:44;6.68;;;4.57;;
76053;SDS011;64752;48.870;9.082;2023-07-02T02:04:09;6.10;;;4.22;;
76053;SDS011;64752;48.870;9.082;2023-07-02T02:06:35;8.50;;;4.97;;
76053;SDS011;64752;48.870;9.082;2023-07-02T02:09:02;6.25;;;4.50;;
76053;SDS011;64752;48.870;9.082;2023-07-02T02:11:31;7.03;;;4.60;;
76053;SDS011;64752;48.870;9.082;2023-07-02T02:13:57;9.82;;;4.45;;
76053;SDS011;64752;48.870;9.082;2023-07-02T02:16:23;6.80;;;4.90;;
76053;SDS011;64752;48.870;9.082;2023-07-02T02:18:49;7.07;;;5.20;;
76053;SDS011;64752;48.870;9.082;2023-07-02T02:21:17;6.97;;;5.38;;
76053;SDS011;64752;48.870;9.082;2023-07-02T02:23:43;7.18;;;4.50;;
76053;SDS011;64752;48.870;9.082;2023-07-02T02:26:08;7.30;;;5.10;;
76053;SDS011;64752;48.870;9.082;2023-07-02T02:28:34;7.13;;;5.00;;
76053;SDS011;64752;48.870;9.082;2023-07-02T02:30:59;7.13;;;5.00;;
76053;SDS011;64752;48.870;9.082;2023-07-02T02:33:25;7.13;;;5.47;;
76053;SDS011;64752;48.870;9.082;2023-07-02T02:35:50;7.90;;;4.70;;
76053;SDS011;64752;48.870;9.082;2023-07-02T02:38:15;5.90;;;4.32;;
76053;SDS011;64752;48.870;9.082;2023-07-02T02:40:41;7.90;;;4.55;;
76053;SDS011;64752;48.870;9.082;2023-07-02T02:43:06;6.72;;;4.18;;
76053;SDS011;64752;48.870;9.082;2023-07-02T02:45:32;9.13;;;4.20;;
76053;SDS011;64752;48.870;9.082;2023-07-02T02:47:57;6.68;;;4.10;;
76053;SDS011;64752;48.870;9.082;2023-07-02T02:50:22;6.05;;;4.03;;
76053;SDS011;64752;48.870;9.082;2023-07-02T02:52:48;8.10;;;4.55;;
76053;SDS011;64752;48.870;9.082;2023-07-02T02:55:13;6.13;;;4.13;;
76053;SDS011;64752;48.870;9.082;2023-07-02T02:57:39;10.85;;;3.97;;
76053;SDS011;64752;48.870;9.082;2023-07-02T03:00:04;7.82;;;4.22;;
76053;SDS011;64752;48.870;9.082;2023-07-02T03:02:31;6.50;;;3.80;;
76053;SDS011;64752;48.870;9.082;2023-07-02T03:04:56;5.88;;;3.72;;
76053;SDS011;64752;48.870;9.082;2023-07-02T03:07:27;7.30;;;4.25;;
76053;SDS011;64752;48.870;9.082;2023-07-02T03:09:52;9.32;;;4.50;;
76053;SDS011;64752;48.870;9.082;2023-07-02T03:12:17;9.80;;;4.37;;
76053;SDS011;64752;48.870;9.082;2023-07-02T03:14:43;5.57;;;4.13;;
76053;SDS011;64752;48.870;9.082;2023-07-02T03:17:08;9.20;;;4.22;;
76053;SDS011;64752;48.870;9.082;2023-07-02T03:19:33;12.60;;;4.70;;
76053;SDS011;64752;48.870;9.082;2023-07-02T03:21:59;14.27;;;4.65;;
76053;SDS011;64752;48.870;9.082;2023-07-02T03:24:24;10.90;;;4.97;;
76053;SDS011;64752;48.870;9.082;2023-07-02T03:26:49;12.77;;;5.03;;
76053;SDS011;64752;48.870;9.082;2023-07-02T03:29:15;10.98;;;5.22;;
76053;SDS011;64752;48.870;9.082;2023-07-02T03:31:41;11.00;;;5.23;;
76053;SDS011;64752;48.870;9.082;2023-07-02T03:34:07;12.73;;;4.68;;
76053;SDS011;64752;48.870;9.082;2023-07-02T03:36:35;9.40;;;4.80;;
76053;SDS011;64752;48.870;9.082;2023-07-02T03:39:01;13.07;;;5.55;;
76053;SDS011;64752;48.870;9.082;2023-07-02T03:41:27;10.10;;;5.10;;
76053;SDS011;64752;48.870;9.082;2023-07-02T03:43:53;10.23;;;5.28;;
76053;SDS011;64752;48.870;9.082;2023-07-02T03:46:18;14.05;;;5.97;;
76053;SDS011;64752;48.870;9.082;2023-07-02T03:48:43;16.83;;;5.78;;
76053;SDS011;64752;48.870;9.082;2023-07-02T03:51:10;11.75;;;5.88;;
76053;SDS011;64752;48.870;9.082;2023-07-02T03:53:37;13.00;;;5.72;;
76053;SDS011;64752;48.870;9.082;2023-07-02T03:56:03;14.63;;;6.28;;
76053;SDS011;64752;48.870;9.082;2023-07-02T03:58:28;13.13;;;6.28;;
76053;SDS011;64752;48.870;9.082;2023-07-02T04:00:53;12.35;;;6.20;;
76053;SDS011;64752;48.870;9.082;2023-07-02T04:03:19;9.38;;;5.95;;
76053;SDS011;64752;48.870;9.082;2023-07-02T04:05:44;13.75;;;6.07;;
76053;SDS011;64752;48.870;9.082;2023-07-02T04:08:09;13.35;;;6.28;;
76053;SDS011;64752;48.870;9.082;2023-07-02T04:10:35;11.68;;;6.32;;
76053;SDS011;64752;48.870;9.082;2023-07-02T04:13:00;12.40;;;6.22;;
76053;SDS011;64752;48.870;9.082;2023-07-02T04:15:26;9.60;;;5.30;;
76053;SDS011;64752;48.870;9.082;2023-07-02T04:17:51;9.48;;;5.95;;
76053;SDS011;64752;48.870;9.082;2023-07-02T04:20:17;13.13;;;5.50;;
76053;SDS011;64752;48.870;9.082;2023-07-02T04:22:44;12.02;;;5.35;;
76053;SDS011;64752;48.870;9.082;2023-07-02T04:25:11;12.07;;;5.27;;
76053;SDS011;64752;48.870;9.082;2023-07-02T04:27:40;7.72;;;4.80;;
76053;SDS011;64752;48.870;9.082;2023-07-02T04:30:06;11.38;;;4.85;;
76053;SDS011;64752;48.870;9.082;2023-07-02T04:32:33;7.20;;;4.45;;
76053;SDS011;64752;48.870;9.082;2023-07-02T04:34:58;12.30;;;5.32;;
76053;SDS011;64752;48.870;9.082;2023-07-02T04:37:24;13.50;;;5.35;;
76053;SDS011;64752;48.870;9.082;2023-07-02T04:39:49;7.18;;;4.20;;
76053;SDS011;64752;48.870;9.082;2023-07-02T04:42:14;8.43;;;4.55;;
76053;SDS011;64752;48.870;9.082;2023-07-02T04:44:40;10.02;;;4.28;;
76053;SDS011;64752;48.870;9.082;2023-07-02T04:47:08;7.28;;;4.25;;
76053;SDS011;64752;48.870;9.082;2023-07-02T04:49:33;9.15;;;4.10;;
76053;SDS011;64752;48.870;9.082;2023-07-02T04:51:59;12.27;;;4.53;;
76053;SDS011;64752;48.870;9.082;2023-07-02T04:54:24;9.43;;;4.03;;
76053;SDS011;64752;48.870;9.082;2023-07-02T04:56:50;8.43;;;4.07;;
76053;SDS011;64752;48.870;9.082;2023-07-02T04:59:15;11.45;;;4.60;;
76053;SDS011;64752;48.870;9.082;2023-07-02T05:01:41;7.63;;;4.17;;
76053;SDS011;64752;48.870;9.082;2023-07-02T05:04:09;11.80;;;4.28;;
76053;SDS011;64752;48.870;9.082;2023-07-02T05:06:35;10.55;;;4.75;;
76053;SDS011;64752;48.870;9.082;2023-07-02T05:09:01;7.47;;;4.10;;
76053;SDS011;64752;48.870;9.082;2023-07-02T05:11:26;8.02;;;3.30;;
76053;SDS011;64752;48.870;9.082;2023-07-02T05:13:51;10.70;;;4.20;;
76053;SDS011;64752;48.870;9.082;2023-07-02T05:16:17;7.77;;;3.80;;
76053;SDS011;64752;48.870;9.082;2023-07-02T05:18:44;7.43;;;4.20;;
76053;SDS011;64752;48.870;9.082;2023-07-02T05:21:10;8.43;;;4.20;;
76053;SDS011;64752;48.870;9.082;2023-07-02T05:23:39;10.20;;;3.88;;
76053;SDS011;64752;48.870;9.082;2023-07-02T05:26:04;11.68;;;3.83;;
76053;SDS011;64752;48.870;9.082;2023-07-02T05:28:29;9.47;;;4.20;;
76053;SDS011;64752;48.870;9.082;2023-07-02T05:30:55;10.20;;;3.60;;
76053;SDS011;64752;48.870;9.082;2023-07-02T05:33:20;9.40;;;4.17;;
76053;SDS011;64752;48.870;9.082;2023-07-02T05:35:47;9.02;;;3.83;;
76053;SDS011;64752;48.870;9.082;2023-07-02T05:38:12;8.83;;;4.27;;
76053;SDS011;64752;48.870;9.082;2023-07-02T05:40:41;9.50;;;4.87;;
76053;SDS011;64752;48.870;9.082;2023-07-02T05:43:06;8.52;;;4.00;;
76053;SDS011;64752;48.870;9.082;2023-07-02T05:45:31;9.23;;;4.80;;
76053;SDS011;64752;48.870;9.082;2023-07-02T05:48:09;9.93;;;5.07;;
76053;SDS011;64752;48.870;9.082;2023-07-02T05:50:43;17.20;;;5.10;;
76053;SDS011;64752;48.870;9.082;2023-07-02T05:53:08;9.27;;;4.83;;
76053;SDS011;64752;48.870;9.082;2023-07-02T05:55:34;9.87;;;5.07;;
76053;SDS011;64752;48.870;9.082;2023-07-02T05:58:00;9.70;;;4.83;;
76053;SDS011;64752;48.870;9.082;2023-07-02T06:00:28;8.48;;;4.70;;
76053;SDS011;64752;48.870;9.082;2023-07-02T06:02:54;11.47;;;5.23;;
76053;SDS011;64752;48.870;9.082;2023-07-02T06:05:19;8.90;;;4.60;;
76053;SDS011;64752;48.870;9.082;2023-07-02T06:07:45;10.70;;;4.30;;
76053;SDS011;64752;48.870;9.082;2023-07-02T06:10:10;10.70;;;5.03;;
76053;SDS011;64752;48.870;9.082;2023-07-02T06:12:38;10.18;;;4.70;;
76053;SDS011;64752;48.870;9.082;2023-07-02T06:15:03;10.53;;;5.00;;
76053;SDS011;64752;48.870;9.082;2023-07-02T06:17:30;11.30;;;5.25;;
76053;SDS011;64752;48.870;9.082;2023-07-02T06:19:56;11.68;;;4.90;;
76053;SDS011;64752;48.870;9.082;2023-07-02T06:22:22;9.25;;;5.05;;
76053;SDS011;64752;48.870;9.082;2023-07-02T06:24:48;9.93;;;5.30;;
76053;SDS011;64752;48.870;9.082;2023-07-02T06:27:13;11.83;;;5.37;;
76053;SDS011;64752;48.870;9.082;2023-07-02T06:29:39;13.63;;;5.47;;
76053;SDS011;64752;48.870;9.082;2023-07-02T06:32:04;9.13;;;5.17;;
76053;SDS011;64752;48.870;9.082;2023-07-02T06:34:30;8.97;;;5.13;;
76053;SDS011;64752;48.870;9.082;2023-07-02T06:36:55;11.33;;;5.03;;
76053;SDS011;64752;48.870;9.082;2023-07-02T06:39:21;9.23;;;5.30;;
76053;SDS011;64752;48.870;9.082;2023-07-02T06:41:49;11.38;;;5.68;;
76053;SDS011;64752;48.870;9.082;2023-07-02T06:44:14;11.97;;;5.63;;
76053;SDS011;64752;48.870;9.082;2023-07-02T06:46:39;11.63;;;5.63;;
76053;SDS011;64752;48.870;9.082;2023-07-02T06:49:05;9.10;;;5.33;;
76053;SDS011;64752;48.870;9.082;2023-07-02T06:51:30;10.33;;;5.17;;
76053;SDS011;64752;48.870;9.082;2023-07-02T06:53:55;12.13;;;5.60;;
76053;SDS011;64752;48.870;9.082;2023-07-02T06:56:21;10.50;;;5.00;;
76053;SDS011;64752;48.870;9.082;2023-07-02T06:58:46;12.00;;;5.30;;
76053;SDS011;64752;48.870;9.082;2023-07-02T07:01:11;13.00;;;5.70;;
76053;SDS011;64752;48.870;9.082;2023-07-02T07:03:37;12.57;;;5.80;;
76053;SDS011;64752;48.870;9.082;2023-07-02T07:06:02;11.70;;;6.10;;
76053;SDS011;64752;48.870;9.082;2023-07-02T07:08:28;13.33;;;8.13;;
76053;SDS011;64752;48.870;9.082;2023-07-02T07:10:53;14.80;;;7.00;;
76053;SDS011;64752;48.870;9.082;2023-07-02T07:13:18;15.57;;;7.97;;
76053;SDS011;64752;48.870;9.082;2023-07-02T07:15:44;13.40;;;7.53;;
76053;SDS011;64752;48.870;9.082;2023-07-02T07:18:09;12.60;;;8.13;;
76053;SDS011;64752;48.870;9.082;2023-07-02T07:20:35;14.70;;;8.27;;
76053;SDS011;64752;48.870;9.082;2023-07-02T07:23:01;14.87;;;9.33;;
76053;SDS011;64752;48.870;9.082;2023-07-02T07:25:27;16.23;;;9.23;;
76053;SDS011;64752;48.870;9.082;2023-07-02T07:27:53;16.87;;;9.43;;
76053;SDS011;64752;48.870;9.082;2023-07-02T07:30:19;17.20;;;8.90;;
76053;SDS011;64752;48.870;9.082;2023-07-02T07:32:48;15.38;;;8.85;;
76053;SDS011;64752;48.870;9.082;2023-07-02T07:35:17;13.00;;;8.82;;
76053;SDS011;64752;48.870;9.082;2023-07-02T07:37:43;17.70;;;9.00;;
76053;SDS011;64752;48.870;9.082;2023-07-02T07:40:09;16.42;;;9.23;;
76053;SDS011;64752;48.870;9.082;2023-07-02T07:42:35;16.65;;;9.77;;
76053;SDS011;64752;48.870;9.082;2023-07-02T07:45:02;17.50;;;8.90;;
76053;SDS011;64752;48.870;9.082;2023-07-02T07:47:28;17.83;;;9.45;;
76053;SDS011;64752;48.870;9.082;2023-07-02T07:49:53;14.53;;;9.13;;
76053;SDS011;64752;48.870;9.082;2023-07-02T07:52:19;17.05;;;10.20;;
76053;SDS011;64752;48.870;9.082;2023-07-02T07:54:45;18.40;;;10.30;;
76053;SDS011;64752;48.870;9.082;2023-07-02T07:57:10;20.57;;;10.83;;
76053;SDS011;64752;48.870;9.082;2023-07-02T07:59:35;15.47;;;9.43;;
76053;SDS011;64752;48.870;9.082;2023-07-02T08:02:01;17.17;;;10.23;;
76053;SDS011;64752;48.870;9.082;2023-07-02T08:04:26;19.53;;;11.10;;
76053;SDS011;64752;48.870;9.082;2023-07-02T08:06:51;18.10;;;10.33;;
76053;SDS011;64752;48.870;9.082;2023-07-02T08:09:17;24.37;;;12.83;;
76053;SDS011;64752;48.870;9.082;2023-07-02T08:11:42;21.53;;;11.03;;
76053;SDS011;64752;48.870;9.082;2023-07-02T08:14:07;19.37;;;11.07;;
76053;SDS011;64752;48.870;9.082;2023-07-02T08:16:33;20.77;;;12.30;;
76053;SDS011;64752;48.870;9.082;2023-07-02T08:18:58;23.37;;;12.10;;
76053;SDS011;64752;48.870;9.082;2023-07-02T08:21:23;18.97;;;11.70;;
76053;SDS011;64752;48.870;9.082;2023-07-02T08:23:49;21.17;;;11.67;;
76053;SDS011;64752;48.870;9.082;2023-07-02T08:26:14;22.03;;;12.17;;
76053;SDS011;64752;48.870;9.082;2023-07-02T08:28:40;17.20;;;11.30;;
76053;SDS011;64752;48.870;9.082;2023-07-02T08:31:06;21.47;;;13.07;;
76053;SDS011;64752;48.870;9.082;2023-07-02T08:33:31;18.73;;;11.80;;
76053;SDS011;64752;48.870;9.082;2023-07-02T08:36:00;19.83;;;12.00;;
76053;SDS011;64752;48.870;9.082;2023-07-02T08:38:26;17.95;;;12.05;;
76053;SDS011;64752;48.870;9.082;2023-07-02T08:40:51;19.10;;;12.03;;
76053;SDS011;64752;48.870;9.082;2023-07-02T08:43:17;18.37;;;11.20;;
76053;SDS011;64752;48.870;9.082;2023-07-02T08:45:42;17.30;;;11.77;;
76053;SDS011;64752;48.870;9.082;2023-07-02T08:48:08;22.90;;;12.17;;
76053;SDS011;64752;48.870;9.082;2023-07-02T08:50:35;20.35;;;11.95;;
76053;SDS011;64752;48.870;9.082;2023-07-02T08:53:01;19.30;;;12.40;;
76053;SDS011;64752;48.870;9.082;2023-07-02T08:55:26;20.05;;;12.38;;
76053;SDS011;64752;48.870;9.082;2023-07-02T08:57:55;19.35;;;12.00;;
76053;SDS011;64752;48.870;9.082;2023-07-02T09:00:22;19.63;;;11.15;;
76053;SDS011;64752;48.870;9.082;2023-07-02T09:02:47;16.13;;;11.70;;
76053;SDS011;64752;48.870;9.082;2023-07-02T09:05:13;17.60;;;12.30;;
76053;SDS011;64752;48.870;9.082;2023-07-02T09:07:45;20.83;;;12.27;;
76053;SDS011;64752;48.870;9.082;2023-07-02T09:10:27;16.75;;;12.02;;
76053;SDS011;64752;48.870;9.082;2023-07-02T09:13:06;19.50;;;12.60;;
76053;SDS011;64752;48.870;9.082;2023-07-02T09:15:35;18.17;;;11.68;;
76053;SDS011;64752;48.870;9.082;2023-07-02T09:18:26;19.50;;;12.30;;
76053;SDS011;64752;48.870;9.082;2023-07-02T09:20:51;17.67;;;12.20;;
76053;SDS011;64752;48.870;9.082;2023-07-02T09:23:18;18.95;;;11.95;;
76053;SDS011;64752;48.870;9.082;2023-07-02T09:25:44;20.02;;;12.73;;
76053;SDS011;64752;48.870;9.082;2023-07-02T09:28:13;20.17;;;11.97;;
76053;SDS011;64752;48.870;9.082;2023-07-02T09:31:04;23.13;;;12.75;;
76053;SDS011;64752;48.870;9.082;2023-07-02T09:33:29;20.57;;;11.97;;
76053;SDS011;64752;48.870;9.082;2023-07-02T09:35:55;19.63;;;12.90;;
76053;SDS011;64752;48.870;9.082;2023-07-02T09:38:20;18.60;;;11.83;;
76053;SDS011;64752;48.870;9.082;2023-07-02T09:40:47;22.13;;;13.75;;
76053;SDS011;64752;48.870;9.082;2023-07-02T09:43:15;20.60;;;13.70;;
76053;SDS011;64752;48.870;9.082;2023-07-02T09:45:45;21.45;;;14.25;;
76053;SDS011;64752;48.870;9.082;2023-07-02T09:48:15;20.70;;;13.50;;
76053;SDS011;64752;48.870;9.082;2023-07-02T09:50:45;21.20;;;13.02;;
76053;SDS011;64752;48.870;9.082;2023-07-02T09:53:13;18.05;;;12.70;;
76053;SDS011;64752;48.870;9.082;2023-07-02T09:55:39;18.80;;;12.57;;
76053;SDS011;64752;48.870;9.082;2023-07-02T09:58:06;17.98;;;12.40;;
76053;SDS011;64752;48.870;9.082;2023-07-02T10:00:32;20.13;;;12.80;;
76053;SDS011;64752;48.870;9.082;2023-07-02T10:02:57;19.92;;;12.05;;
76053;SDS011;64752;48.870;9.082;2023-07-02T10:05:26;19.63;;;12.70;;
76053;SDS011;64752;48.870;9.082;2023-07-02T10:08:11;18.35;;;11.73;;
76053;SDS011;64752;48.870;9.082;2023-07-02T10:10:38;18.20;;;12.50;;
76053;SDS011;64752;48.870;9.082;2023-07-02T10:13:04;18.13;;;12.00;;
76053;SDS011;64752;48.870;9.082;2023-07-02T10:15:30;18.77;;;11.90;;
76053;SDS011;64752;48.870;9.082;2023-07-02T10:17:57;18.85;;;12.25;;
76053;SDS011;64752;48.870;9.082;2023-07-02T10:23:05;17.58;;;11.57;;
76053;SDS011;64752;48.870;9.082;2023-07-02T10:25:33;20.15;;;12.52;;
76053;SDS011;64752;48.870;9.082;2023-07-02T10:28:13;23.67;;;13.98;;
76053;SDS011;64752;48.870;9.082;2023-07-02T10:30:39;19.17;;;13.30;;
76053;SDS011;64752;48.870;9.082;2023-07-02T10:33:08;19.80;;;12.93;;
76053;SDS011;64752;48.870;9.082;2023-07-02T10:35:34;20.70;;;13.63;;
76053;SDS011;64752;48.870;9.082;2023-07-02T10:38:00;23.02;;;13.38;;
76053;SDS011;64752;48.870;9.082;2023-07-02T10:40:26;19.37;;;12.83;;
76053;SDS011;64752;48.870;9.082;2023-07-02T10:42:52;19.00;;;13.37;;
76053;SDS011;64752;48.870;9.082;2023-07-02T10:45:18;17.58;;;12.48;;
76053;SDS011;64752;48.870;9.082;2023-07-02T10:47:44;19.75;;;12.80;;
76053;SDS011;64752;48.870;9.082;2023-07-02T10:50:16;17.83;;;12.02;;
76053;SDS011;64752;48.870;9.082;2023-07-02T10:52:43;20.92;;;12.73;;
76053;SDS011;64752;48.870;9.082;2023-07-02T10:55:09;19.10;;;11.43;;
76053;SDS011;64752;48.870;9.082;2023-07-02T10:57:35;19.30;;;12.13;;
76053;SDS011;64752;48.870;9.082;2023-07-02T11:00:06;20.15;;;13.02;;
76053;SDS011;64752;48.870;9.082;2023-07-02T11:02:39;19.05;;;12.82;;
76053;SDS011;64752;48.870;9.082;2023-07-02T11:05:05;17.08;;;12.43;;
76053;SDS011;64752;48.870;9.082;2023-07-02T11:07:35;17.92;;;12.05;;
76053;SDS011;64752;48.870;9.082;2023-07-02T11:10:00;18.45;;;12.75;;
76053;SDS011;64752;48.870;9.082;2023-07-02T11:12:32;18.57;;;12.87;;
76053;SDS011;64752;48.870;9.082;2023-07-02T11:15:07;22.08;;;13.63;;
76053;SDS011;64752;48.870;9.082;2023-07-02T11:17:37;17.05;;;11.88;;
76053;SDS011;64752;48.870;9.082;2023-07-02T11:20:06;17.17;;;11.95;;
76053;SDS011;64752;48.870;9.082;2023-07-02T11:22:33;18.60;;;11.80;;
76053;SDS011;64752;48.870;9.082;2023-07-02T11:27:45;16.05;;;10.90;;
76053;SDS011;64752;48.870;9.082;2023-07-02T11:30:11;17.52;;;11.50;;
76053;SDS011;64752;48.870;9.082;2023-07-02T11:35:34;20.95;;;12.18;;
76053;SDS011;64752;48.870;9.082;2023-07-02T11:38:00;20.13;;;12.52;;
76053;SDS011;64752;48.870;9.082;2023-07-02T11:40:26;17.80;;;12.40;;
76053;SDS011;64752;48.870;9.082;2023-07-02T11:42:51;17.50;;;12.27;;
76053;SDS011;64752;48.870;9.082;2023-07-02T11:45:16;17.33;;;11.47;;
76053;SDS011;64752;48.870;9.082;2023-07-02T11:47:42;16.53;;;11.23;;
76053;SDS011;64752;48.870;9.082;2023-07-02T11:50:07;20.00;;;12.07;;
76053;SDS011;64752;48.870;9.082;2023-07-02T11:52:33;18.63;;;12.00;;
76053;SDS011;64752;48.870;9.082;2023-07-02T11:54:58;18.67;;;11.97;;
76053;SDS011;64752;48.870;9.082;2023-07-02T11:57:23;19.50;;;12.00;;
76053;SDS011;64752;48.870;9.082;2023-07-02T11:59:49;20.30;;;12.43;;
76053;SDS011;64752;48.870;9.082;2023-07-02T12:02:15;17.00;;;12.05;;
76053;SDS011;64752;48.870;9.082;2023-07-02T12:04:41;22.33;;;12.13;;
76053;SDS011;64752;48.870;9.082;2023-07-02T12:07:06;19.15;;;12.35;;
76053;SDS011;64752;48.870;9.082;2023-07-02T12:09:32;18.03;;;12.47;;
76053;SDS011;64752;48.870;9.082;2023-07-02T12:11:57;16.50;;;12.00;;
76053;SDS011;64752;48.870;9.082;2023-07-02T12:14:22;17.67;;;12.33;;
76053;SDS011;64752;48.870;9.082;2023-07-02T12:16:48;17.23;;;12.10;;
76053;SDS011;64752;48.870;9.082;2023-07-02T12:19:13;18.57;;;12.67;;
76053;SDS011;64752;48.870;9.082;2023-07-02T12:21:38;18.63;;;12.50;;
76053;SDS011;64752;48.870;9.082;2023-07-02T12:24:04;17.37;;;12.63;;
76053;SDS011;64752;48.870;9.082;2023-07-02T12:26:33;18.95;;;12.35;;
76053;SDS011;64752;48.870;9.082;2023-07-02T12:28:59;19.67;;;12.30;;
76053;SDS011;64752;48.870;9.082;2023-07-02T12:31:25;20.30;;;12.20;;
76053;SDS011;64752;48.870;9.082;2023-07-02T12:33:50;20.42;;;12.68;;
76053;SDS011;64752;48.870;9.082;2023-07-02T12:36:16;18.47;;;12.93;;
76053;SDS011;64752;48.870;9.082;2023-07-02T12:38:41;17.13;;;11.93;;
76053;SDS011;64752;48.870;9.082;2023-07-02T12:41:06;18.20;;;12.27;;
76053;SDS011;64752;48.870;9.082;2023-07-02T12:43:32;18.10;;;12.37;;
76053;SDS011;64752;48.870;9.082;2023-07-02T12:45:57;19.13;;;12.43;;
76053;SDS011;64752;48.870;9.082;2023-07-02T12:48:22;20.27;;;12.67;;
76053;SDS011;64752;48.870;9.082;2023-07-02T12:50:54;19.57;;;12.67;;
76053;SDS011;64752;48.870;9.082;2023-07-02T12:53:21;21.15;;;12.80;;
76053;SDS011;64752;48.870;9.082;2023-07-02T12:55:46;18.52;;;12.45;;
76053;SDS011;64752;48.870;9.082;2023-07-02T12:58:11;17.43;;;11.77;;
76053;SDS011;64752;48.870;9.082;2023-07-02T13:00:37;23.03;;;13.60;;
76053;SDS011;64752;48.870;9.082;2023-07-02T13:03:02;18.60;;;12.70;;
76053;SDS011;64752;48.870;9.082;2023-07-02T13:05:28;18.87;;;12.47;;
76053;SDS011;64752;48.870;9.082;2023-07-02T13:07:53;22.00;;;12.40;;
76053;SDS011;64752;48.870;9.082;2023-07-02T13:10:18;19.37;;;12.67;;
76053;SDS011;64752;48.870;9.082;2023-07-02T13:12:44;19.35;;;12.52;;
76053;SDS011;64752;48.870;9.082;2023-07-02T13:15:09;19.93;;;13.03;;
76053;SDS011;64752;48.870;9.082;2023-07-02T13:17:37;18.77;;;11.93;;
76053;SDS011;64752;48.870;9.082;2023-07-02T13:20:02;20.45;;;12.85;;
76053;SDS011;64752;48.870;9.082;2023-07-02T13:22:29;20.80;;;12.50;;
76053;SDS011;64752;48.870;9.082;2023-07-02T13:24:54;17.63;;;12.85;;
76053;SDS011;64752;48.870;9.082;2023-07-02T13:27:19;17.33;;;12.67;;
76053;SDS011;64752;48.870;9.082;2023-07-02T13:29:45;18.00;;;11.75;;
76053;SDS011;64752;48.870;9.082;2023-07-02T13:32:10;20.63;;;12.87;;
76053;SDS011;64752;48.870;9.082;2023-07-02T13:34:36;18.67;;;12.32;;
76053;SDS011;64752;48.870;9.082;2023-07-02T13:37:02;16.95;;;12.38;;
76053;SDS011;64752;48.870;9.082;2023-07-02T13:39:28;22.92;;;12.80;;
76053;SDS011;64752;48.870;9.082;2023-07-02T13:41:54;19.65;;;12.30;;
76053;SDS011;64752;48.870;9.082;2023-07-02T13:44:19;19.27;;;12.17;;
76053;SDS011;64752;48.870;9.082;2023-07-02T13:46:44;17.40;;;12.37;;
76053;SDS011;64752;48.870;9.082;2023-07-02T13:49:12;18.63;;;13.00;;
76053;SDS011;64752;48.870;9.082;2023-07-02T13:51:37;18.40;;;11.30;;
76053;SDS011;64752;48.870;9.082;2023-07-02T13:54:02;17.73;;;12.47;;
76053;SDS011;64752;48.870;9.082;2023-07-02T13:56:28;16.50;;;11.50;;
76053;SDS011;64752;48.870;9.082;2023-07-02T14:01:24;15.98;;;11.15;;
76053;SDS011;64752;48.870;9.082;2023-07-02T14:03:49;17.13;;;10.85;;
76053;SDS011;64752;48.870;9.082;2023-07-02T14:06:15;15.80;;;11.50;;
76053;SDS011;64752;48.870;9.082;2023-07-02T14:08:41;17.30;;;11.50;;
76053;SDS011;64752;48.870;9.082;2023-07-02T14:11:07;18.85;;;11.40;;
76053;SDS011;64752;48.870;9.082;2023-07-02T14:13:34;18.08;;;11.75;;
76053;SDS011;64752;48.870;9.082;2023-07-02T14:15:59;17.87;;;11.23;;
76053;SDS011;64752;48.870;9.082;2023-07-02T14:18:25;15.73;;;11.77;;
76053;SDS011;64752;48.870;9.082;2023-07-02T14:20:50;15.00;;;10.98;;
76053;SDS011;64752;48.870;9.082;2023-07-02T14:23:15;16.17;;;11.60;;
76053;SDS011;64752;48.870;9.082;2023-07-02T14:25:41;15.00;;;10.57;;
76053;SDS011;64752;48.870;9.082;2023-07-02T14:28:06;17.07;;;10.40;;
76053;SDS011;64752;48.870;9.082;2023-07-02T14:30:31;19.30;;;10.90;;
76053;SDS011;64752;48.870;9.082;2023-07-02T14:32:57;15.50;;;10.63;;
76053;SDS011;64752;48.870;9.082;2023-07-02T14:35:22;17.57;;;11.80;;
76053;SDS011;64752;48.870;9.082;2023-07-02T14:37:52;17.92;;;11.68;;
76053;SDS011;64752;48.870;9.082;2023-07-02T14:40:18;17.05;;;11.70;;
76053;SDS011;64752;48.870;9.082;2023-07-02T14:42:43;20.60;;;12.40;;